Time;durP1;ratioP1;P1;durP2;ratioP2;P2;SDS_P1;SDS_P2;PMS_P1;PMS_P2;Temp;Humidity;BMP_temperature;BMP_pressure;BME280_temperature;BME280_humidity;BME280_pressure;Samples;Min_cycle;Max_cycle;Signal;HPM_P1;HPM_P2
2023/04/13 00:01:10;;;;;;;0.22;0.20;;;17.80;61.70;;;;;;4891251;29;45339;-72
2023/04/13 00:03:37;;;;;;;0.17;0.17;;;17.80;61.70;;;;;;4890741;29;45190;-72
2023/04/13 00:06:05;;;;;;;0.20;0.10;;;17.80;61.50;;;;;;4891388;29;45275;-72
2023/04/13 00:08:34;;;;;;;0.65;0.30;;;17.80;61.40;;;;;;4891123;29;45243;-72
2023/04/13 00:11:01;;;;;;;0.40;0.30;;;17.80;61.30;;;;;;4890760;29;47517;-72
2023/04/13 00:13:28;;;;;;;0.30;0.28;;;17.80;61.10;;;;;;4890998;29;45310;-72
2023/04/13 00:15:56;;;;;;;0.30;0.22;;;17.80;61.10;;;;;;4898783;29;45293;-72
2023/04/13 00:18:24;;;;;;;0.43;0.22;;;17.80;61.40;;;;;;4905639;29;45334;-72
2023/04/13 00:20:50;;;;;;;0.70;0.20;;;17.80;61.10;;;;;;4898193;29;46616;-72
2023/04/13 00:23:17;;;;;;;0.65;0.20;;;17.80;61.00;;;;;;4874707;29;45511;-72
2023/04/13 00:25:44;;;;;;;0.73;0.30;;;17.70;60.90;;;;;;4893225;29;45240;-72
2023/04/13 00:28:11;;;;;;;0.57;0.28;;;17.80;61.20;;;;;;4899431;29;45441;-72
2023/04/13 00:30:38;;;;;;;0.65;0.30;;;17.80;61.40;;;;;;4890550;29;46634;-72
2023/04/13 00:33:06;;;;;;;1.17;0.20;;;17.80;61.40;;;;;;4890545;29;45385;-72
2023/04/13 00:35:33;;;;;;;0.52;0.25;;;17.80;61.50;;;;;;4890889;29;45218;-72
2023/04/13 00:38:01;;;;;;;1.23;0.30;;;17.80;61.50;;;;;;4890668;29;45440;-72
2023/04/13 00:40:28;;;;;;;1.00;0.20;;;17.80;61.60;;;;;;4898033;29;47189;-72
2023/04/13 00:42:55;;;;;;;0.80;0.20;;;17.80;61.40;;;;;;4890123;29;46147;-72
2023/04/13 00:45:22;;;;;;;0.22;0.15;;;17.80;61.40;;;;;;4886311;29;45280;-72
2023/04/13 00:47:50;;;;;;;0.25;0.20;;;17.80;61.60;;;;;;4903125;29;45586;-72
2023/04/13 00:50:20;;;;;;;0.85;0.30;;;17.80;61.30;;;;;;4909066;29;48181;-72
2023/04/13 00:52:47;;;;;;;0.70;0.30;;;17.80;61.20;;;;;;4893855;29;46559;-72
2023/04/13 00:55:19;;;;;;;0.20;0.20;;;17.80;61.10;;;;;;4890094;29;45235;-72
2023/04/13 00:57:48;;;;;;;0.15;0.13;;;17.80;61.10;;;;;;4897656;29;45333;-72
2023/04/13 01:00:16;;;;;;;0.22;0.22;;;17.80;61.00;;;;;;4908941;29;46586;-72
2023/04/13 01:02:43;;;;;;;0.95;0.35;;;17.80;61.00;;;;;;4908622;29;45510;-72
2023/04/13 01:05:11;;;;;;;0.20;0.20;;;17.80;61.20;;;;;;4890348;29;45365;-72
2023/04/13 01:07:49;;;;;;;0.50;0.30;;;17.80;61.00;;;;;;4896506;29;45205;-72
2023/04/13 01:10:22;;;;;;;0.38;0.10;;;17.80;61.00;;;;;;4893101;29;46547;-72
2023/04/13 01:12:56;;;;;;;0.25;0.10;;;17.70;61.00;;;;;;4899964;29;45926;-72
2023/04/13 01:15:26;;;;;;;0.82;0.25;;;17.80;60.90;;;;;;4871696;29;45201;-72
2023/04/13 01:17:58;;;;;;;0.77;0.28;;;17.80;61.00;;;;;;4886957;29;45289;-72
2023/04/13 01:20:28;;;;;;;0.50;0.30;;;17.80;61.20;;;;;;4890056;29;45233;-72
2023/04/13 01:22:59;;;;;;;0.17;0.17;;;17.80;61.20;;;;;;4887898;29;45352;-72
2023/04/13 01:25:37;;;;;;;0.55;0.20;;;17.80;61.20;;;;;;4889826;29;45326;-72
2023/04/13 01:28:08;;;;;;;0.52;0.20;;;17.80;61.30;;;;;;4887362;29;45270;-72
2023/04/13 01:30:37;;;;;;;1.15;0.20;;;17.80;61.50;;;;;;4890060;29;47007;-72
2023/04/13 01:33:05;;;;;;;0.65;0.20;;;17.80;61.30;;;;;;4889991;29;45320;-72
2023/04/13 01:35:32;;;;;;;0.63;0.13;;;17.80;61.30;;;;;;4890084;29;45204;-72
2023/04/13 01:37:59;;;;;;;0.43;0.13;;;17.80;61.20;;;;;;4890012;29;45615;-72
2023/04/13 01:40:27;;;;;;;0.52;0.30;;;17.80;61.00;;;;;;4892023;29;47015;-72
2023/04/13 01:42:54;;;;;;;0.17;0.13;;;17.80;60.80;;;;;;4889297;29;45984;-72
2023/04/13 01:45:26;;;;;;;0.77;0.25;;;17.80;60.80;;;;;;4893378;29;45235;-72
2023/04/13 01:48:01;;;;;;;0.28;0.10;;;17.80;60.80;;;;;;4908493;29;45223;-72
2023/04/13 01:50:31;;;;;;;0.35;0.20;;;17.80;60.80;;;;;;4902808;29;46420;-72
2023/04/13 01:53:07;;;;;;;0.73;0.20;;;17.80;60.80;;;;;;4904954;29;45380;-72
2023/04/13 01:55:37;;;;;;;0.45;0.30;;;17.80;60.50;;;;;;4894866;29;45291;-72
2023/04/13 01:58:06;;;;;;;0.52;0.20;;;17.80;60.60;;;;;;4908525;29;45267;-72
2023/04/13 02:00:35;;;;;;;0.47;0.20;;;17.80;60.40;;;;;;4902752;29;47515;-72
2023/04/13 02:03:05;;;;;;;0.20;0.17;;;17.80;60.50;;;;;;4889114;29;45455;-72
2023/04/13 02:05:31;;;;;;;0.20;0.20;;;17.80;60.30;;;;;;4902338;29;45298;-72
2023/04/13 02:07:58;;;;;;;0.30;0.20;;;17.80;60.50;;;;;;4908534;29;45561;-72
2023/04/13 02:10:26;;;;;;;0.47;0.13;;;17.80;60.70;;;;;;4893296;29;46540;-72
2023/04/13 02:12:54;;;;;;;0.65;0.20;;;17.80;61.10;;;;;;4905092;29;46633;-72
2023/04/13 02:15:21;;;;;;;0.85;0.35;;;17.70;61.00;;;;;;4908615;29;45212;-72
2023/04/13 02:17:49;;;;;;;0.20;0.10;;;17.80;61.00;;;;;;4896847;29;45439;-72
2023/04/13 02:20:16;;;;;;;0.68;0.30;;;17.80;60.90;;;;;;4910840;29;46299;-72
2023/04/13 02:22:44;;;;;;;0.43;0.20;;;17.80;60.90;;;;;;4908725;29;45324;-72
2023/04/13 02:25:11;;;;;;;0.45;0.20;;;17.70;61.00;;;;;;4904911;29;45210;-71
2023/04/13 02:27:39;;;;;;;0.10;0.10;;;17.80;60.90;;;;;;4892430;29;45714;-72
2023/04/13 02:30:08;;;;;;;0.40;0.22;;;17.80;60.70;;;;;;4893997;29;45325;-72
2023/04/13 02:32:36;;;;;;;0.28;0.22;;;17.80;60.80;;;;;;4911540;29;45217;-72
2023/04/13 02:35:04;;;;;;;0.30;0.20;;;17.80;60.70;;;;;;4893891;29;45361;-72
2023/04/13 02:37:31;;;;;;;0.28;0.20;;;17.80;61.40;;;;;;4891936;29;45514;-71
2023/04/13 02:39:58;;;;;;;0.28;0.10;;;17.80;60.40;;;;;;4892166;29;46249;-72
2023/04/13 02:42:26;;;;;;;0.50;0.30;;;17.80;60.50;;;;;;4904682;29;45905;-72
2023/04/13 02:44:52;;;;;;;0.85;0.30;;;17.80;60.50;;;;;;4911248;29;45250;-72
2023/04/13 02:47:19;;;;;;;0.20;0.10;;;17.80;60.20;;;;;;4911737;29;45140;-71
2023/04/13 02:49:46;;;;;;;1.33;0.32;;;17.80;60.20;;;;;;4896118;29;46747;-72
2023/04/13 02:52:15;;;;;;;0.40;0.20;;;17.80;60.40;;;;;;4892159;29;45162;-72
2023/04/13 02:54:43;;;;;;;0.82;0.40;;;17.80;60.40;;;;;;4892278;29;45281;-72
2023/04/13 02:57:12;;;;;;;1.00;0.40;;;17.70;60.40;;;;;;4892153;29;45565;-72
2023/04/13 02:59:39;;;;;;;1.00;0.20;;;17.70;60.50;;;;;;4891777;29;46835;-72
2023/04/13 03:02:06;;;;;;;0.30;0.10;;;17.80;60.80;;;;;;4891401;29;45191;-72
2023/04/13 03:04:32;;;;;;;0.20;0.10;;;17.80;60.80;;;;;;4891987;29;45217;-72
2023/04/13 03:07:03;;;;;;;0.10;0.10;;;17.80;60.80;;;;;;4892338;29;45676;-72
2023/04/13 03:09:32;;;;;;;0.70;0.30;;;17.80;60.80;;;;;;4891966;29;47534;-72
2023/04/13 03:11:58;;;;;;;0.20;0.20;;;17.80;60.70;;;;;;4900508;29;45298;-72
2023/04/13 03:14:28;;;;;;;0.20;0.20;;;17.80;60.80;;;;;;4911183;29;45313;-72
2023/04/13 03:16:56;;;;;;;0.20;0.10;;;17.80;61.00;;;;;;4910727;29;45585;-72
2023/04/13 03:19:23;;;;;;;0.35;0.20;;;17.80;60.80;;;;;;4907365;29;48460;-72
2023/04/13 03:21:50;;;;;;;1.20;0.20;;;17.80;60.70;;;;;;4908856;29;45760;-72
2023/04/13 03:24:16;;;;;;;0.35;0.13;;;17.80;60.70;;;;;;4891751;29;45409;-72
2023/04/13 03:26:45;;;;;;;0.28;0.15;;;17.80;60.60;;;;;;4891210;29;45272;-72
2023/04/13 03:29:12;;;;;;;0.55;0.43;;;17.80;60.50;;;;;;4891321;29;46500;-72
2023/04/13 03:31:38;;;;;;;0.47;0.20;;;17.80;60.50;;;;;;4891454;29;45201;-72
2023/04/13 03:34:05;;;;;;;0.63;0.20;;;17.80;60.50;;;;;;4893458;29;45528;-72
2023/04/13 03:36:32;;;;;;;0.17;0.10;;;17.80;60.30;;;;;;4910462;29;45595;-72
2023/04/13 03:39:00;;;;;;;0.40;0.20;;;17.70;60.30;;;;;;4893566;29;47279;-72
2023/04/13 03:41:27;;;;;;;0.60;0.20;;;17.80;60.40;;;;;;4891414;29;45590;-72
2023/04/13 03:43:55;;;;;;;0.28;0.10;;;17.80;60.20;;;;;;4875487;29;45290;-72
2023/04/13 03:46:22;;;;;;;0.20;0.10;;;17.70;60.10;;;;;;4895653;29;45449;-73
2023/04/13 03:48:49;;;;;;;0.20;0.10;;;17.80;60.50;;;;;;4902879;29;45408;-72
2023/04/13 03:51:16;;;;;;;0.50;0.20;;;17.80;60.90;;;;;;4899080;29;45339;-72
2023/04/13 03:53:43;;;;;;;0.10;0.05;;;17.80;61.00;;;;;;4891445;29;45197;-72
2023/04/13 03:56:10;;;;;;;0.20;0.10;;;17.80;61.00;;;;;;4893812;29;45620;-71
2023/04/13 03:58:37;;;;;;;0.10;0.10;;;17.80;61.00;;;;;;4910099;29;46431;-71
2023/04/13 04:01:06;;;;;;;1.23;0.38;;;17.80;60.80;;;;;;4910102;29;45270;-71
2023/04/13 04:03:33;;;;;;;0.47;0.10;;;17.70;60.20;;;;;;4894857;29;45156;-72
2023/04/13 04:06:00;;;;;;;0.32;0.10;;;17.70;60.20;;;;;;4890825;29;45276;-72
2023/04/13 04:08:27;;;;;;;0.88;0.13;;;17.70;60.30;;;;;;4898510;29;45393;-72
2023/04/13 04:10:54;;;;;;;0.30;0.10;;;17.70;60.30;;;;;;4890841;29;45259;-72
2023/04/13 04:13:22;;;;;;;0.28;0.22;;;17.70;60.30;;;;;;4891157;29;45301;-72
2023/04/13 04:15:49;;;;;;;0.35;0.20;;;17.70;60.70;;;;;;4906583;29;45180;-71
2023/04/13 04:18:17;;;;;;;1.02;0.28;;;17.70;61.00;;;;;;4910037;29;47016;-72
2023/04/13 04:20:44;;;;;;;0.10;0.10;;;17.60;61.00;;;;;;4908370;29;45298;-73
2023/04/13 04:23:13;;;;;;;0.30;0.20;;;17.60;61.10;;;;;;4910337;29;45175;-73
2023/04/13 04:25:40;;;;;;;1.20;0.10;;;17.60;61.00;;;;;;4910112;29;45313;-72
2023/04/13 04:28:08;;;;;;;0.20;0.10;;;17.60;61.20;;;;;;4909959;29;45258;-72
2023/04/13 04:30:34;;;;;;;0.38;0.20;;;17.60;61.30;;;;;;4909752;29;45230;-72
2023/04/13 04:33:01;;;;;;;0.55;0.10;;;17.60;61.40;;;;;;4900814;29;45284;-72
2023/04/13 04:35:33;;;;;;;0.30;0.17;;;17.60;61.00;;;;;;4891247;29;45145;-72
2023/04/13 04:38:02;;;;;;;0.43;0.17;;;17.70;61.30;;;;;;4890046;29;48249;-72
2023/04/13 04:40:29;;;;;;;0.25;0.20;;;17.70;61.40;;;;;;4890560;29;45346;-72
2023/04/13 04:42:56;;;;;;;0.20;0.10;;;17.70;61.30;;;;;;4890723;29;45242;-72
2023/04/13 04:45:26;;;;;;;0.10;0.10;;;17.70;61.30;;;;;;4898363;29;45326;-72
2023/04/13 04:47:56;;;;;;;0.40;0.25;;;17.70;61.40;;;;;;4890249;29;45437;-72
2023/04/13 04:50:24;;;;;;;1.02;0.20;;;17.70;61.40;;;;;;4894029;29;45140;-72
2023/04/13 04:52:53;;;;;;;0.13;0.00;;;17.70;61.20;;;;;;4901802;29;45369;-72
2023/04/13 04:55:19;;;;;;;0.90;0.20;;;17.70;60.90;;;;;;4890569;29;45484;-72
2023/04/13 04:57:48;;;;;;;0.50;0.28;;;17.70;60.70;;;;;;4890282;29;47014;-72
2023/04/13 05:00:16;;;;;;;0.20;0.13;;;17.70;60.40;;;;;;4909208;29;45335;-72
2023/04/13 05:02:43;;;;;;;0.13;0.10;;;17.70;60.20;;;;;;4909239;29;45199;-72
2023/04/13 05:05:11;;;;;;;0.13;0.10;;;17.60;59.90;;;;;;4909711;29;45134;-72
2023/04/13 05:07:38;;;;;;;0.45;0.10;;;17.60;59.70;;;;;;4909275;29;47579;-72
2023/04/13 05:10:08;;;;;;;0.20;0.10;;;17.60;59.60;;;;;;4909509;29;46027;-72
2023/04/13 05:12:35;;;;;;;1.13;0.20;;;17.60;59.00;;;;;;4909376;29;45307;-72
2023/04/13 05:15:03;;;;;;;0.68;0.20;;;17.60;59.50;;;;;;4909499;29;45270;-73
2023/04/13 05:17:29;;;;;;;0.50;0.20;;;17.60;59.80;;;;;;4909362;29;45234;-73
2023/04/13 05:19:56;;;;;;;0.43;0.28;;;17.60;59.70;;;;;;4909370;29;45329;-73
2023/04/13 05:22:23;;;;;;;1.15;0.22;;;17.60;59.90;;;;;;4909577;29;45347;-73
2023/04/13 05:24:50;;;;;;;0.10;0.10;;;17.60;60.20;;;;;;4909491;29;45112;-73
2023/04/13 05:27:18;;;;;;;0.80;0.30;;;17.60;60.30;;;;;;4908960;29;47044;-73
2023/04/13 05:29:45;;;;;;;0.43;0.20;;;17.70;60.50;;;;;;4909106;29;45221;-73
2023/04/13 05:32:12;;;;;;;0.10;0.10;;;17.70;60.70;;;;;;4909314;29;45234;-73
2023/04/13 05:34:39;;;;;;;0.55;0.08;;;17.70;60.80;;;;;;4909292;29;45727;-72
2023/04/13 05:37:05;;;;;;;0.70;0.10;;;17.70;60.80;;;;;;4909020;29;46331;-72
2023/04/13 05:39:32;;;;;;;0.60;0.22;;;17.70;60.90;;;;;;4909195;29;45256;-73
2023/04/13 05:42:00;;;;;;;0.20;0.20;;;17.70;61.00;;;;;;4892519;29;45218;-72
2023/04/13 05:44:28;;;;;;;0.30;0.20;;;17.70;61.00;;;;;;4890227;29;45426;-72
2023/04/13 05:46:55;;;;;;;0.32;0.20;;;17.70;61.00;;;;;;4889521;29;48327;-72
2023/04/13 05:49:21;;;;;;;0.35;0.22;;;17.80;61.10;;;;;;4889446;29;45073;-72
2023/04/13 05:51:50;;;;;;;0.75;0.20;;;17.80;61.00;;;;;;4899306;29;45235;-72
2023/04/13 05:54:19;;;;;;;0.65;0.28;;;17.80;61.10;;;;;;4899530;29;45584;-73
2023/04/13 05:56:46;;;;;;;0.15;0.10;;;17.80;61.10;;;;;;4906296;29;47151;-71
2023/04/13 05:59:13;;;;;;;0.25;0.20;;;17.80;61.20;;;;;;4889582;29;45366;-72
2023/04/13 06:01:42;;;;;;;0.45;0.20;;;17.80;61.10;;;;;;4891978;29;45323;-71
2023/04/13 06:04:10;;;;;;;0.38;0.13;;;17.80;61.20;;;;;;4899233;29;45570;-71
2023/04/13 06:06:37;;;;;;;0.10;0.10;;;17.80;61.10;;;;;;4907870;29;46847;-71
2023/04/13 06:09:05;;;;;;;0.50;0.22;;;17.70;60.80;;;;;;4906608;29;45255;-71
2023/04/13 06:11:32;;;;;;;0.88;0.45;;;17.70;61.30;;;;;;4889487;29;45378;-71
2023/04/13 06:13:58;;;;;;;0.43;0.30;;;17.70;61.50;;;;;;4896970;29;45349;-71
2023/04/13 06:16:25;;;;;;;0.50;0.25;;;17.70;61.50;;;;;;4892760;29;48727;-71
2023/04/13 06:18:53;;;;;;;0.10;0.10;;;17.70;61.50;;;;;;4899640;29;45319;-72
2023/04/13 06:21:20;;;;;;;0.55;0.20;;;17.70;61.70;;;;;;4887365;29;45616;-71
2023/04/13 06:23:49;;;;;;;0.47;0.10;;;17.70;61.80;;;;;;4888895;29;45437;-71
2023/04/13 06:26:17;;;;;;;0.22;0.10;;;17.70;61.90;;;;;;4899250;29;47200;-71
2023/04/13 06:28:43;;;;;;;0.32;0.10;;;17.80;61.90;;;;;;4900583;29;46335;-72
2023/04/13 06:31:11;;;;;;;0.68;0.10;;;17.80;61.90;;;;;;4893401;29;45371;-71
2023/04/13 06:33:37;;;;;;;1.27;0.47;;;17.80;61.90;;;;;;4888304;29;45341;-71
2023/04/13 06:36:06;;;;;;;0.50;0.20;;;17.80;61.80;;;;;;4888500;29;47497;-71
2023/04/13 06:38:33;;;;;;;1.08;0.28;;;17.70;61.90;;;;;;4894031;29;45386;-71
2023/04/13 06:41:01;;;;;;;0.15;0.10;;;17.80;61.90;;;;;;4907349;29;45306;-71
2023/04/13 06:43:28;;;;;;;0.77;0.20;;;17.70;61.70;;;;;;4907734;29;45346;-71
2023/04/13 06:45:58;;;;;;;0.10;0.10;;;17.80;61.70;;;;;;4890936;29;47494;-71
2023/04/13 06:48:25;;;;;;;0.30;0.20;;;17.80;61.80;;;;;;4901121;29;45995;-71
2023/04/13 06:50:53;;;;;;;1.27;0.52;;;17.80;61.70;;;;;;4907294;29;45285;-71
2023/04/13 06:53:21;;;;;;;0.38;0.10;;;17.80;61.70;;;;;;4900820;29;45203;-71
2023/04/13 06:55:48;;;;;;;0.20;0.10;;;17.80;61.70;;;;;;4907401;29;46498;-71
2023/04/13 06:58:15;;;;;;;1.20;0.20;;;17.80;61.50;;;;;;4904400;29;45398;-70
2023/04/13 07:00:42;;;;;;;1.52;0.25;;;17.80;61.60;;;;;;4888572;29;45227;-71
2023/04/13 07:03:09;;;;;;;0.47;0.20;;;17.70;61.50;;;;;;4893016;29;45696;-71
2023/04/13 07:05:36;;;;;;;0.20;0.10;;;17.80;61.70;;;;;;4910626;29;46625;-71
2023/04/13 07:08:02;;;;;;;0.22;0.20;;;17.80;61.70;;;;;;4910460;29;45218;-71
2023/04/13 07:10:30;;;;;;;0.63;0.15;;;17.80;61.70;;;;;;4897786;29;45318;-72
2023/04/13 07:12:57;;;;;;;0.30;0.10;;;17.80;61.70;;;;;;4907901;29;45327;-71
2023/04/13 07:15:24;;;;;;;1.65;0.30;;;17.80;61.70;;;;;;4891520;29;47572;-71
2023/04/13 07:17:51;;;;;;;0.13;0.10;;;17.80;61.70;;;;;;4891440;29;46014;-71
2023/04/13 07:20:18;;;;;;;0.20;0.10;;;17.80;61.80;;;;;;4902788;29;45139;-71
2023/04/13 07:22:44;;;;;;;0.80;0.20;;;17.80;61.80;;;;;;4903197;29;45553;-71
2023/04/13 07:25:11;;;;;;;2.30;0.20;;;17.80;61.80;;;;;;4891263;29;48290;-71
2023/04/13 07:27:39;;;;;;;0.20;0.20;;;17.80;61.70;;;;;;4891238;29;45367;-71
2023/04/13 07:30:08;;;;;;;0.13;0.13;;;17.80;61.60;;;;;;4891526;29;45536;-71
2023/04/13 07:32:35;;;;;;;0.32;0.10;;;17.80;61.50;;;;;;4891726;29;45265;-71
2023/04/13 07:35:02;;;;;;;0.88;0.30;;;17.80;61.60;;;;;;4890956;29;47505;-71
2023/04/13 07:37:29;;;;;;;0.40;0.22;;;17.80;61.50;;;;;;4891379;29;45236;-71
2023/04/13 07:39:56;;;;;;;2.72;0.20;;;17.80;61.60;;;;;;4891935;29;45076;-71
2023/04/13 07:42:23;;;;;;;1.40;0.35;;;17.80;61.50;;;;;;4902320;29;45286;-71
2023/04/13 07:44:54;;;;;;;0.70;0.30;;;17.80;61.40;;;;;;4909918;29;48328;-71
2023/04/13 07:47:21;;;;;;;0.20;0.10;;;17.90;61.60;;;;;;4900822;29;45337;-71
2023/04/13 07:49:48;;;;;;;0.70;0.10;;;17.80;61.40;;;;;;4891190;29;45299;-72
2023/04/13 07:52:15;;;;;;;0.50;0.25;;;17.80;61.50;;;;;;4902140;29;45409;-71
2023/04/13 07:54:41;;;;;;;1.88;0.10;;;17.80;61.50;;;;;;4909961;29;46252;-71
2023/04/13 07:57:08;;;;;;;1.38;0.35;;;17.80;61.60;;;;;;4909726;29;45327;-71
2023/04/13 07:59:35;;;;;;;0.77;0.43;;;17.80;61.70;;;;;;4909578;29;45226;-71
2023/04/13 08:02:04;;;;;;;1.17;0.30;;;17.90;61.90;;;;;;4893159;29;45490;-71
2023/04/13 08:04:31;;;;;;;0.63;0.20;;;17.80;61.70;;;;;;4901640;29;46630;-71
2023/04/13 08:07:02;;;;;;;0.17;0.10;;;17.90;61.90;;;;;;4909080;29;45282;-71
2023/04/13 08:09:31;;;;;;;0.40;0.10;;;17.90;62.00;;;;;;4897544;29;45357;-71
2023/04/13 08:11:58;;;;;;;0.10;0.10;;;17.80;61.80;;;;;;4893810;29;45266;-71
2023/04/13 08:14:25;;;;;;;1.20;0.30;;;17.80;61.80;;;;;;4909539;29;46615;-71
2023/04/13 08:16:52;;;;;;;0.40;0.20;;;17.90;61.90;;;;;;4909577;29;45329;-71
2023/04/13 08:19:20;;;;;;;0.70;0.20;;;17.90;61.80;;;;;;4894738;29;45262;-71
2023/04/13 08:21:46;;;;;;;0.35;0.20;;;17.90;61.70;;;;;;4909571;29;45306;-71
2023/04/13 08:24:13;;;;;;;1.35;0.30;;;17.90;61.70;;;;;;4898502;29;46585;-71
2023/04/13 08:26:40;;;;;;;1.55;0.40;;;17.90;61.60;;;;;;4904731;29;45358;-72
2023/04/13 08:29:07;;;;;;;0.63;0.63;;;17.90;61.60;;;;;;4907485;29;45324;-71
2023/04/13 08:31:34;;;;;;;0.88;0.38;;;17.80;61.60;;;;;;4890899;29;45261;-71
2023/04/13 08:34:01;;;;;;;0.95;0.30;;;17.80;61.50;;;;;;4907395;29;45640;-71
2023/04/13 08:36:30;;;;;;;0.82;0.28;;;17.80;61.30;;;;;;4904266;29;45317;-72
2023/04/13 08:38:57;;;;;;;1.17;0.25;;;17.80;61.40;;;;;;4901744;29;45222;-71
2023/04/13 08:41:25;;;;;;;1.40;0.40;;;17.80;61.50;;;;;;4909190;29;45557;-71
2023/04/13 08:43:53;;;;;;;0.38;0.17;;;17.80;61.50;;;;;;4908434;29;48449;-72
2023/04/13 08:46:20;;;;;;;1.13;0.25;;;17.80;61.70;;;;;;4909041;29;45334;-72
2023/04/13 08:48:48;;;;;;;0.40;0.20;;;17.80;61.90;;;;;;4909509;29;45252;-72
2023/04/13 08:51:15;;;;;;;0.35;0.28;;;17.80;62.10;;;;;;4909198;29;45618;-72
2023/04/13 08:53:43;;;;;;;0.40;0.20;;;17.80;62.30;;;;;;4909357;29;47392;-72
2023/04/13 08:56:14;;;;;;;1.60;0.30;;;17.80;62.30;;;;;;4891899;29;45389;-71
2023/04/13 08:58:44;;;;;;;0.60;0.22;;;17.80;62.20;;;;;;4890238;29;45334;-72
2023/04/13 09:01:13;;;;;;;0.98;0.28;;;17.80;62.30;;;;;;4898360;29;45251;-71
2023/04/13 09:03:48;;;;;;;0.60;0.30;;;17.80;62.30;;;;;;4889757;29;47367;-72
2023/04/13 09:06:23;;;;;;;0.85;0.20;;;17.80;62.20;;;;;;4890219;29;45335;-71
2023/04/13 09:08:52;;;;;;;0.57;0.25;;;17.80;62.10;;;;;;4890244;29;45327;-71
2023/04/13 09:11:20;;;;;;;0.93;0.40;;;17.80;63.10;;;;;;4882532;29;45427;-71
2023/04/13 09:13:49;;;;;;;0.50;0.30;;;17.80;61.90;;;;;;4889564;29;48307;-71
2023/04/13 09:16:16;;;;;;;1.38;0.47;;;17.80;61.90;;;;;;4892993;29;45308;-72
2023/04/13 09:18:49;;;;;;;0.45;0.30;;;17.80;62.00;;;;;;4908884;29;45321;-72
2023/04/13 09:21:16;;;;;;;1.30;0.60;;;17.80;62.10;;;;;;4906123;29;45325;-71
2023/04/13 09:23:54;;;;;;;1.30;0.40;;;17.80;62.10;;;;;;4900298;29;46268;-71
2023/04/13 09:26:21;;;;;;;1.55;0.80;;;17.80;62.10;;;;;;4870832;29;45320;-71
2023/04/13 09:28:49;;;;;;;0.55;0.30;;;17.80;62.00;;;;;;4901097;29;45380;-71
2023/04/13 09:31:16;;;;;;;0.80;0.40;;;17.80;62.20;;;;;;4908097;29;45258;-71
2023/04/13 09:33:47;;;;;;;1.45;0.45;;;17.80;62.10;;;;;;4904174;29;47056;-71
2023/04/13 09:36:16;;;;;;;2.33;0.47;;;17.80;62.20;;;;;;4892814;29;45316;-71
2023/04/13 09:38:43;;;;;;;1.10;0.55;;;17.80;62.20;;;;;;4900397;29;45206;-71
2023/04/13 09:41:12;;;;;;;1.15;0.40;;;17.80;62.20;;;;;;4898192;29;45687;-71
2023/04/13 09:43:39;;;;;;;1.52;0.43;;;17.90;62.40;;;;;;4903010;29;46687;-71
2023/04/13 09:46:12;;;;;;;1.95;0.47;;;17.90;62.40;;;;;;4892570;29;45422;-72
2023/04/13 09:48:39;;;;;;;1.23;0.47;;;17.90;62.40;;;;;;4900275;29;45337;-71
2023/04/13 09:51:08;;;;;;;0.88;0.60;;;17.90;62.40;;;;;;4900528;29;45581;-72
2023/04/13 09:53:42;;;;;;;2.55;0.60;;;17.90;62.40;;;;;;4902828;29;47680;-71
2023/04/13 09:56:10;;;;;;;0.75;0.43;;;17.90;62.30;;;;;;4889037;29;45261;-71
2023/04/13 09:58:41;;;;;;;1.65;0.47;;;17.90;62.30;;;;;;4889480;29;45223;-71
2023/04/13 10:01:09;;;;;;;0.98;0.47;;;17.90;62.20;;;;;;4898978;29;45337;-71
2023/04/13 10:03:37;;;;;;;2.10;0.60;;;17.90;62.10;;;;;;4893642;29;46749;-71
2023/04/13 10:06:06;;;;;;;2.58;0.60;;;17.90;61.80;;;;;;4898525;29;45361;-71
2023/04/13 10:08:33;;;;;;;1.20;0.52;;;17.90;61.90;;;;;;4900142;29;45418;-71
2023/04/13 10:11:01;;;;;;;2.13;0.60;;;17.90;61.90;;;;;;4908241;29;45295;-71
2023/04/13 10:13:35;;;;;;;0.88;0.40;;;17.90;61.50;;;;;;4898306;29;46749;-71
2023/04/13 10:16:32;;;;;;;1.42;0.60;;;17.90;61.60;;;;;;4906314;29;45956;-71
2023/04/13 10:19:02;;;;;;;1.55;0.80;;;17.90;61.50;;;;;;4888377;29;45222;-71
2023/04/13 10:21:32;;;;;;;1.15;0.32;;;17.90;61.60;;;;;;4889186;29;45520;-71
2023/04/13 10:23:59;;;;;;;1.83;0.70;;;17.80;61.70;;;;;;4886942;29;46390;-71
2023/04/13 10:26:32;;;;;;;1.75;0.52;;;17.80;61.80;;;;;;4901288;29;45279;-71
2023/04/13 10:29:01;;;;;;;2.47;0.70;;;17.90;62.40;;;;;;4908303;29;45326;-70
2023/04/13 10:31:36;;;;;;;1.38;0.60;;;17.80;61.90;;;;;;4907894;29;45353;-70
2023/04/13 10:34:03;;;;;;;0.75;0.32;;;17.90;61.90;;;;;;4908322;29;45725;-72
2023/04/13 10:36:38;;;;;;;1.95;0.32;;;17.90;61.50;;;;;;4908778;29;45151;-71
2023/04/13 10:39:05;;;;;;;1.67;0.60;;;17.90;61.60;;;;;;4912061;29;45316;-72
2023/04/13 10:41:31;;;;;;;2.25;0.73;;;17.90;61.40;;;;;;4896461;29;45581;-71
2023/04/13 10:44:04;;;;;;;1.52;0.52;;;17.90;61.40;;;;;;4892628;29;45207;-71
2023/04/13 10:46:32;;;;;;;2.47;0.60;;;18.00;61.40;;;;;;4892447;29;45155;-71
2023/04/13 10:49:00;;;;;;;1.30;0.40;;;18.00;60.80;;;;;;4892336;29;45216;-71
2023/04/13 10:51:37;;;;;;;1.42;0.55;;;18.00;60.90;;;;;;4892368;29;45395;-71
2023/04/13 10:54:04;;;;;;;2.67;0.63;;;18.00;61.00;;;;;;4892273;29;46316;-71
2023/04/13 10:56:31;;;;;;;1.85;0.60;;;18.00;61.00;;;;;;4892450;29;45265;-71
2023/04/13 10:58:58;;;;;;;1.75;0.88;;;17.90;60.70;;;;;;4893438;29;45132;-71
2023/04/13 11:01:29;;;;;;;1.08;0.60;;;18.00;60.80;;;;;;4911318;29;45439;-71
2023/04/13 11:03:57;;;;;;;1.50;0.63;;;18.00;61.00;;;;;;4910947;29;48582;-71
2023/04/13 11:06:25;;;;;;;1.33;0.40;;;17.90;60.80;;;;;;4911117;29;45326;-70
2023/04/13 11:09:01;;;;;;;1.63;0.77;;;17.90;61.00;;;;;;4911164;29;45255;-71
2023/04/13 11:11:29;;;;;;;2.38;0.70;;;17.90;60.90;;;;;;4911285;29;45293;-71
2023/04/13 11:13:56;;;;;;;1.65;0.63;;;17.90;61.20;;;;;;4911136;29;47042;-71
2023/04/13 11:16:23;;;;;;;1.13;0.50;;;18.00;62.30;;;;;;4901864;29;45362;-71
2023/04/13 11:19:00;;;;;;;1.02;0.40;;;18.00;61.40;;;;;;4892157;29;45299;-71
2023/04/13 11:21:27;;;;;;;1.00;0.57;;;18.00;61.40;;;;;;4891981;29;45581;-71
2023/04/13 11:23:54;;;;;;;1.25;0.65;;;18.00;61.40;;;;;;4899864;29;46307;-71
2023/04/13 11:26:31;;;;;;;0.75;0.40;;;18.00;61.20;;;;;;4902713;29;45210;-71
2023/04/13 11:28:58;;;;;;;1.33;0.50;;;18.00;61.40;;;;;;4910956;29;45231;-71
2023/04/13 11:31:36;;;;;;;1.90;0.50;;;18.00;61.40;;;;;;4911096;29;45553;-71
2023/04/13 11:34:05;;;;;;;1.42;0.70;;;17.90;61.10;;;;;;4909410;29;45463;-71
2023/04/13 11:36:32;;;;;;;2.55;0.70;;;17.90;61.10;;;;;;4891611;29;46104;-71
2023/04/13 11:39:00;;;;;;;1.73;0.52;;;18.00;61.00;;;;;;4892107;29;45200;-71
2023/04/13 11:41:27;;;;;;;1.20;0.65;;;18.00;61.10;;;;;;4891948;29;45362;-71
2023/04/13 11:43:54;;;;;;;1.77;0.80;;;18.00;60.80;;;;;;4891201;29;47231;-71
2023/04/13 11:46:23;;;;;;;2.97;0.45;;;17.90;60.80;;;;;;4891521;29;45239;-71
2023/04/13 11:48:51;;;;;;;2.42;0.65;;;17.90;60.70;;;;;;4898641;29;45080;-71
2023/04/13 11:51:19;;;;;;;1.27;0.65;;;17.90;60.70;;;;;;4873107;29;45352;-71
2023/04/13 11:53:46;;;;;;;2.75;0.70;;;17.90;60.80;;;;;;4886260;29;46597;-71
2023/04/13 11:56:13;;;;;;;1.98;0.60;;;17.90;60.70;;;;;;4910089;29;45230;-71
2023/04/13 11:58:41;;;;;;;0.80;0.38;;;17.90;60.70;;;;;;4910401;29;45300;-71
2023/04/13 12:01:09;;;;;;;1.20;0.60;;;17.90;60.50;;;;;;4910488;29;45482;-71
2023/04/13 12:03:38;;;;;;;1.98;0.60;;;17.90;61.00;;;;;;4909804;29;46893;-70
2023/04/13 12:06:06;;;;;;;1.90;0.70;;;17.90;61.00;;;;;;4908454;29;45351;-71
2023/04/13 12:08:34;;;;;;;2.85;0.60;;;17.90;61.00;;;;;;4893701;29;45378;-71
2023/04/13 12:11:04;;;;;;;2.90;0.60;;;17.90;61.30;;;;;;4891470;29;45322;-71
2023/04/13 12:13:39;;;;;;;2.30;0.80;;;17.90;61.30;;;;;;4891234;29;47560;-71
2023/04/13 12:16:06;;;;;;;0.80;0.52;;;17.90;61.30;;;;;;4891372;29;45121;-71
2023/04/13 12:18:39;;;;;;;1.90;0.55;;;17.90;61.40;;;;;;4891149;29;45263;-71
2023/04/13 12:21:06;;;;;;;1.58;0.43;;;17.90;61.40;;;;;;4891184;29;45449;-71
2023/04/13 12:23:34;;;;;;;1.52;0.73;;;17.90;61.40;;;;;;4891069;29;46621;-71
2023/04/13 12:26:04;;;;;;;1.02;0.50;;;17.90;61.10;;;;;;4908187;29;45237;-71
2023/04/13 12:28:32;;;;;;;1.95;0.60;;;17.90;61.20;;;;;;4896591;29;45231;-71
2023/04/13 12:31:03;;;;;;;1.85;0.70;;;17.90;61.20;;;;;;4893683;29;45330;-71
2023/04/13 12:33:31;;;;;;;4.03;0.98;;;17.90;61.00;;;;;;4890940;29;48201;-71
2023/04/13 12:35:57;;;;;;;1.42;0.60;;;17.90;61.00;;;;;;4890858;29;45238;-71
2023/04/13 12:38:25;;;;;;;2.65;0.95;;;17.90;61.00;;;;;;4890894;29;45342;-71
2023/04/13 12:40:56;;;;;;;0.90;0.55;;;17.90;60.80;;;;;;4890995;29;45457;-71
2023/04/13 12:43:23;;;;;;;1.80;0.45;;;17.90;60.70;;;;;;4890833;29;46263;-71
2023/04/13 12:45:51;;;;;;;1.80;0.80;;;17.90;60.80;;;;;;4890818;29;46148;-71
2023/04/13 12:48:18;;;;;;;1.80;0.80;;;17.90;60.70;;;;;;4890988;29;45164;-71
2023/04/13 12:50:45;;;;;;;1.90;0.63;;;17.90;60.80;;;;;;4890829;29;45102;-71
2023/04/13 12:53:11;;;;;;;1.83;0.70;;;17.90;61.00;;;;;;4890569;29;48736;-71